sensor_id;sensor_type;location;lat;lon;timestamp;pressure;altitude;pressure_sealevel;temperature;humidity
16806;BME280;8520;50.102;20.010;2022-12-18T00:01:29;99658.25;;;-2.39;80.31
16806;BME280;8520;50.102;20.010;2022-12-18T00:03:58;99654.06;;;-2.71;81.38
16806;BME280;8520;50.102;20.010;2022-12-18T00:06:28;99647.72;;;-2.09;79.98
16806;BME280;8520;50.102;20.010;2022-12-18T00:08:58;99667.81;;;-2.25;79.45
16806;BME280;8520;50.102;20.010;2022-12-18T00:11:28;99668.75;;;-2.18;78.95
16806;BME280;8520;50.102;20.010;2022-12-18T00:13:57;99660.50;;;-2.25;80.30
16806;BME280;8520;50.102;20.010;2022-12-18T00:16:27;99672.09;;;-2.40;79.35
16806;BME280;8520;50.102;20.010;2022-12-18T00:18:59;99682.81;;;-2.28;79.34
16806;BME280;8520;50.102;20.010;2022-12-18T00:21:29;99676.56;;;-1.93;79.31
16806;BME280;8520;50.102;20.010;2022-12-18T00:23:59;99686.78;;;-1.83;77.63
16806;BME280;8520;50.102;20.010;2022-12-18T00:26:29;99687.31;;;-2.32;79.28
16806;BME280;8520;50.102;20.010;2022-12-18T00:29:03;99691.16;;;-2.33;79.34
16806;BME280;8520;50.102;20.010;2022-12-18T00:31:32;99700.47;;;-2.31;79.69
16806;BME280;8520;50.102;20.010;2022-12-18T00:34:00;99691.19;;;-2.14;78.89
16806;BME280;8520;50.102;20.010;2022-12-18T00:36:31;99690.88;;;-1.74;78.17
16806;BME280;8520;50.102;20.010;2022-12-18T00:39:01;99691.50;;;-1.61;76.74
16806;BME280;8520;50.102;20.010;2022-12-18T00:41:30;99696.94;;;-2.15;77.72
16806;BME280;8520;50.102;20.010;2022-12-18T00:44:17;99715.34;;;-2.02;76.54
16806;BME280;8520;50.102;20.010;2022-12-18T00:46:46;99715.44;;;-1.98;76.20
16806;BME280;8520;50.102;20.010;2022-12-18T00:49:16;99721.22;;;-2.50;77.36
16806;BME280;8520;50.102;20.010;2022-12-18T00:51:47;99711.06;;;-2.22;77.04
16806;BME280;8520;50.102;20.010;2022-12-18T00:54:15;99730.94;;;-1.95;76.13
16806;BME280;8520;50.102;20.010;2022-12-18T00:56:43;99719.28;;;-2.34;75.36
16806;BME280;8520;50.102;20.010;2022-12-18T00:59:16;99734.91;;;-2.43;76.81
16806;BME280;8520;50.102;20.010;2022-12-18T01:01:44;99739.16;;;-2.58;76.42
16806;BME280;8520;50.102;20.010;2022-12-18T01:04:13;99727.81;;;-1.97;75.00
16806;BME280;8520;50.102;20.010;2022-12-18T01:06:44;99755.50;;;-2.19;74.82
16806;BME280;8520;50.102;20.010;2022-12-18T01:09:14;99746.50;;;-2.08;74.55
16806;BME280;8520;50.102;20.010;2022-12-18T01:11:42;99741.06;;;-1.73;73.76
16806;BME280;8520;50.102;20.010;2022-12-18T01:14:10;99750.47;;;-2.37;74.58
16806;BME280;8520;50.102;20.010;2022-12-18T01:16:38;99756.09;;;-2.10;75.15
16806;BME280;8520;50.102;20.010;2022-12-18T01:19:06;99760.47;;;-1.86;74.56
16806;BME280;8520;50.102;20.010;2022-12-18T01:21:34;99755.25;;;-2.30;74.40
16806;BME280;8520;50.102;20.010;2022-12-18T01:24:04;99760.19;;;-1.81;73.71
16806;BME280;8520;50.102;20.010;2022-12-18T01:26:34;99758.50;;;-1.70;73.19
16806;BME280;8520;50.102;20.010;2022-12-18T01:29:02;99760.22;;;-2.32;74.38
16806;BME280;8520;50.102;20.010;2022-12-18T01:31:31;99767.59;;;-2.29;75.25
16806;BME280;8520;50.102;20.010;2022-12-18T01:34:02;99760.22;;;-2.48;75.67
16806;BME280;8520;50.102;20.010;2022-12-18T01:36:32;99764.34;;;-2.54;76.54
16806;BME280;8520;50.102;20.010;2022-12-18T01:39:02;99771.59;;;-2.23;75.62
16806;BME280;8520;50.102;20.010;2022-12-18T01:41:32;99760.97;;;-2.16;74.81
16806;BME280;8520;50.102;20.010;2022-12-18T01:44:54;99763.97;;;-2.52;75.32
16806;BME280;8520;50.102;20.010;2022-12-18T01:47:26;99763.69;;;-2.32;76.09
16806;BME280;8520;50.102;20.010;2022-12-18T01:49:56;99766.69;;;-2.37;75.54
16806;BME280;8520;50.102;20.010;2022-12-18T01:52:27;99777.81;;;-2.70;76.24
16806;BME280;8520;50.102;20.010;2022-12-18T01:54:56;99774.41;;;-2.19;75.33
16806;BME280;8520;50.102;20.010;2022-12-18T01:57:25;99794.00;;;-2.70;75.42
16806;BME280;8520;50.102;20.010;2022-12-18T01:59:57;99787.22;;;-2.79;76.36
16806;BME280;8520;50.102;20.010;2022-12-18T02:02:39;99790.38;;;-2.46;76.05
16806;BME280;8520;50.102;20.010;2022-12-18T02:05:09;99786.97;;;-2.27;75.49
16806;BME280;8520;50.102;20.010;2022-12-18T02:07:43;99782.34;;;-2.42;75.92
16806;BME280;8520;50.102;20.010;2022-12-18T02:10:17;99795.28;;;-2.16;74.74
16806;BME280;8520;50.102;20.010;2022-12-18T02:12:53;99803.09;;;-1.95;73.76
16806;BME280;8520;50.102;20.010;2022-12-18T02:15:28;99796.72;;;-1.87;73.43
16806;BME280;8520;50.102;20.010;2022-12-18T02:18:04;99807.75;;;-1.77;73.37
16806;BME280;8520;50.102;20.010;2022-12-18T02:20:36;99814.78;;;-2.07;73.78
16806;BME280;8520;50.102;20.010;2022-12-18T02:23:12;99818.28;;;-2.07;73.44
16806;BME280;8520;50.102;20.010;2022-12-18T02:26:02;99812.38;;;-1.77;72.92
16806;BME280;8520;50.102;20.010;2022-12-18T02:28:36;99825.97;;;-2.09;73.50
16806;BME280;8520;50.102;20.010;2022-12-18T02:31:10;99828.59;;;-2.44;74.06
16806;BME280;8520;50.102;20.010;2022-12-18T02:33:40;99829.53;;;-1.69;73.02
16806;BME280;8520;50.102;20.010;2022-12-18T02:36:09;99826.81;;;-1.69;72.02
16806;BME280;8520;50.102;20.010;2022-12-18T02:38:39;99832.13;;;-1.38;71.97
16806;BME280;8520;50.102;20.010;2022-12-18T02:41:13;99827.75;;;-1.97;73.18
16806;BME280;8520;50.102;20.010;2022-12-18T02:43:47;99836.72;;;-1.93;73.12
16806;BME280;8520;50.102;20.010;2022-12-18T02:46:28;99840.59;;;-2.25;73.57
16806;BME280;8520;50.102;20.010;2022-12-18T02:49:06;99843.31;;;-1.75;72.72
16806;BME280;8520;50.102;20.010;2022-12-18T02:51:45;99838.25;;;-1.76;72.58
16806;BME280;8520;50.102;20.010;2022-12-18T02:54:23;99844.72;;;-1.81;72.75
16806;BME280;8520;50.102;20.010;2022-12-18T02:57:04;99844.66;;;-1.65;72.46
16806;BME280;8520;50.102;20.010;2022-12-18T02:59:39;99854.84;;;-1.93;74.18
16806;BME280;8520;50.102;20.010;2022-12-18T03:02:18;99857.28;;;-1.88;74.13
16806;BME280;8520;50.102;20.010;2022-12-18T03:04:55;99853.69;;;-1.77;73.87
16806;BME280;8520;50.102;20.010;2022-12-18T03:07:33;99862.28;;;-2.22;75.33
16806;BME280;8520;50.102;20.010;2022-12-18T03:10:09;99856.78;;;-2.25;75.74
16806;BME280;8520;50.102;20.010;2022-12-18T03:12:43;99838.56;;;-2.13;75.72
16806;BME280;8520;50.102;20.010;2022-12-18T03:15:16;99861.91;;;-1.89;75.11
16806;BME280;8520;50.102;20.010;2022-12-18T03:17:52;99864.63;;;-1.89;75.73
16806;BME280;8520;50.102;20.010;2022-12-18T03:20:25;99862.69;;;-1.18;74.01
16806;BME280;8520;50.102;20.010;2022-12-18T03:22:59;99861.16;;;-1.35;74.15
16806;BME280;8520;50.102;20.010;2022-12-18T03:25:28;99854.91;;;-1.00;73.59
16806;BME280;8520;50.102;20.010;2022-12-18T03:28:00;99861.66;;;-1.10;73.31
16806;BME280;8520;50.102;20.010;2022-12-18T03:30:32;99873.59;;;-1.50;74.27
16806;BME280;8520;50.102;20.010;2022-12-18T03:33:06;99879.75;;;-1.14;74.23
16806;BME280;8520;50.102;20.010;2022-12-18T03:35:40;99882.31;;;-1.02;74.00
16806;BME280;8520;50.102;20.010;2022-12-18T03:38:11;99886.72;;;-1.32;74.57
16806;BME280;8520;50.102;20.010;2022-12-18T03:40:53;99884.56;;;-1.42;75.14
16806;BME280;8520;50.102;20.010;2022-12-18T03:43:35;99882.38;;;-1.72;75.91
16806;BME280;8520;50.102;20.010;2022-12-18T03:46:11;99894.22;;;-1.77;76.37
16806;BME280;8520;50.102;20.010;2022-12-18T03:48:46;99895.06;;;-1.57;75.81
16806;BME280;8520;50.102;20.010;2022-12-18T03:51:24;99896.38;;;-1.31;74.86
16806;BME280;8520;50.102;20.010;2022-12-18T03:53:57;99901.94;;;-1.24;74.62
16806;BME280;8520;50.102;20.010;2022-12-18T03:56:33;99898.47;;;-0.86;74.01
16806;BME280;8520;50.102;20.010;2022-12-18T03:59:07;99897.97;;;-0.92;73.96
16806;BME280;8520;50.102;20.010;2022-12-18T04:01:40;99900.44;;;-1.41;74.50
16806;BME280;8520;50.102;20.010;2022-12-18T04:04:13;99892.84;;;-1.16;74.64
16806;BME280;8520;50.102;20.010;2022-12-18T04:06:43;99910.25;;;-1.33;75.16
16806;BME280;8520;50.102;20.010;2022-12-18T04:09:13;99909.91;;;-1.31;75.34
16806;BME280;8520;50.102;20.010;2022-12-18T04:11:46;99913.31;;;-1.85;76.17
16806;BME280;8520;50.102;20.010;2022-12-18T04:14:16;99914.94;;;-1.30;75.87
16806;BME280;8520;50.102;20.010;2022-12-18T04:16:48;99914.28;;;-1.27;75.14
16806;BME280;8520;50.102;20.010;2022-12-18T04:19:20;99916.44;;;-1.67;75.67
16806;BME280;8520;50.102;20.010;2022-12-18T04:21:50;99915.41;;;-1.63;76.59
16806;BME280;8520;50.102;20.010;2022-12-18T04:24:18;99917.31;;;-1.63;76.59
16806;BME280;8520;50.102;20.010;2022-12-18T04:26:59;99920.69;;;-1.51;76.12
16806;BME280;8520;50.102;20.010;2022-12-18T04:29:33;99922.84;;;-1.91;76.78
16806;BME280;8520;50.102;20.010;2022-12-18T04:32:01;99929.75;;;-1.59;76.82
16806;BME280;8520;50.102;20.010;2022-12-18T04:34:31;99927.41;;;-1.45;76.17
16806;BME280;8520;50.102;20.010;2022-12-18T04:36:59;99935.75;;;-1.50;76.89
16806;BME280;8520;50.102;20.010;2022-12-18T04:39:28;99938.41;;;-1.69;77.15
16806;BME280;8520;50.102;20.010;2022-12-18T04:42:01;99947.53;;;-1.58;76.59
16806;BME280;8520;50.102;20.010;2022-12-18T04:44:29;99951.03;;;-2.05;77.38
16806;BME280;8520;50.102;20.010;2022-12-18T04:46:58;99962.56;;;-1.92;77.53
16806;BME280;8520;50.102;20.010;2022-12-18T04:49:26;99951.06;;;-1.89;78.35
16806;BME280;8520;50.102;20.010;2022-12-18T04:51:54;99953.19;;;-2.42;79.52
16806;BME280;8520;50.102;20.010;2022-12-18T04:54:22;99958.03;;;-1.72;77.60
16806;BME280;8520;50.102;20.010;2022-12-18T04:56:50;99962.47;;;-1.64;77.46
16806;BME280;8520;50.102;20.010;2022-12-18T04:59:19;99966.13;;;-1.72;77.91
16806;BME280;8520;50.102;20.010;2022-12-18T05:01:47;99969.38;;;-1.82;78.51
16806;BME280;8520;50.102;20.010;2022-12-18T05:04:16;99970.66;;;-2.08;78.68
16806;BME280;8520;50.102;20.010;2022-12-18T05:06:45;99975.69;;;-1.43;77.22
16806;BME280;8520;50.102;20.010;2022-12-18T05:09:14;99984.06;;;-2.11;77.63
16806;BME280;8520;50.102;20.010;2022-12-18T05:11:42;99981.13;;;-2.06;78.28
16806;BME280;8520;50.102;20.010;2022-12-18T05:14:12;99979.38;;;-1.98;79.00
16806;BME280;8520;50.102;20.010;2022-12-18T05:16:40;99978.69;;;-1.95;78.85
16806;BME280;8520;50.102;20.010;2022-12-18T05:19:08;99999.50;;;-2.40;79.44
16806;BME280;8520;50.102;20.010;2022-12-18T05:21:38;99991.72;;;-2.13;79.86
16806;BME280;8520;50.102;20.010;2022-12-18T05:24:06;99994.34;;;-2.73;80.74
16806;BME280;8520;50.102;20.010;2022-12-18T05:26:34;99991.44;;;-2.24;79.71
16806;BME280;8520;50.102;20.010;2022-12-18T05:29:02;99988.97;;;-2.29;79.63
16806;BME280;8520;50.102;20.010;2022-12-18T05:31:30;99994.78;;;-2.15;79.23
16806;BME280;8520;50.102;20.010;2022-12-18T05:34:05;100001.84;;;-2.38;79.42
16806;BME280;8520;50.102;20.010;2022-12-18T05:36:33;99994.34;;;-2.17;79.41
16806;BME280;8520;50.102;20.010;2022-12-18T05:39:03;99996.06;;;-2.24;79.26
16806;BME280;8520;50.102;20.010;2022-12-18T05:41:31;99992.38;;;-2.32;79.67
16806;BME280;8520;50.102;20.010;2022-12-18T05:43:59;100005.06;;;-2.05;79.21
16806;BME280;8520;50.102;20.010;2022-12-18T05:46:28;100001.53;;;-1.46;77.43
16806;BME280;8520;50.102;20.010;2022-12-18T05:48:59;100008.56;;;-1.57;77.36
16806;BME280;8520;50.102;20.010;2022-12-18T05:51:27;100017.81;;;-1.89;77.50
16806;BME280;8520;50.102;20.010;2022-12-18T05:53:55;100019.78;;;-2.18;78.54
16806;BME280;8520;50.102;20.010;2022-12-18T05:56:25;100014.88;;;-1.53;77.24
16806;BME280;8520;50.102;20.010;2022-12-18T05:58:53;100018.34;;;-1.68;77.01
16806;BME280;8520;50.102;20.010;2022-12-18T06:01:24;100018.44;;;-1.64;76.76
16806;BME280;8520;50.102;20.010;2022-12-18T06:03:53;100024.19;;;-1.34;76.25
16806;BME280;8520;50.102;20.010;2022-12-18T06:06:24;100027.84;;;-1.90;77.07
16806;BME280;8520;50.102;20.010;2022-12-18T06:08:53;100034.34;;;-2.07;78.27
16806;BME280;8520;50.102;20.010;2022-12-18T06:11:23;100039.50;;;-2.30;79.24
16806;BME280;8520;50.102;20.010;2022-12-18T06:13:54;100038.75;;;-2.14;78.79
16806;BME280;8520;50.102;20.010;2022-12-18T06:16:25;100045.19;;;-1.91;77.97
16806;BME280;8520;50.102;20.010;2022-12-18T06:18:55;100050.81;;;-1.36;76.72
16806;BME280;8520;50.102;20.010;2022-12-18T06:21:24;100043.63;;;-1.29;75.56
16806;BME280;8520;50.102;20.010;2022-12-18T06:23:52;100051.56;;;-1.52;75.76
16806;BME280;8520;50.102;20.010;2022-12-18T06:26:20;100048.00;;;-1.24;75.61
16806;BME280;8520;50.102;20.010;2022-12-18T06:28:55;100046.94;;;-1.51;75.69
16806;BME280;8520;50.102;20.010;2022-12-18T06:31:24;100054.69;;;-1.81;77.26
16806;BME280;8520;50.102;20.010;2022-12-18T06:33:53;100053.03;;;-1.86;76.95
16806;BME280;8520;50.102;20.010;2022-12-18T06:36:21;100052.28;;;-1.55;76.92
16806;BME280;8520;50.102;20.010;2022-12-18T06:38:50;100060.03;;;-2.13;78.14
16806;BME280;8520;50.102;20.010;2022-12-18T06:41:20;100074.16;;;-2.32;78.61
16806;BME280;8520;50.102;20.010;2022-12-18T06:43:48;100070.28;;;-2.46;79.18
16806;BME280;8520;50.102;20.010;2022-12-18T06:46:22;100071.38;;;-2.07;78.76
16806;BME280;8520;50.102;20.010;2022-12-18T06:48:50;100079.41;;;-2.23;78.72
16806;BME280;8520;50.102;20.010;2022-12-18T06:51:19;100078.28;;;-2.22;78.27
16806;BME280;8520;50.102;20.010;2022-12-18T06:53:47;100082.69;;;-2.02;78.71
16806;BME280;8520;50.102;20.010;2022-12-18T06:56:15;100094.06;;;-1.96;77.64
16806;BME280;8520;50.102;20.010;2022-12-18T06:58:43;100094.69;;;-1.87;77.33
16806;BME280;8520;50.102;20.010;2022-12-18T07:01:13;100103.53;;;-2.02;78.17
16806;BME280;8520;50.102;20.010;2022-12-18T07:03:42;100098.72;;;-1.65;77.12
16806;BME280;8520;50.102;20.010;2022-12-18T07:06:16;100103.09;;;-2.04;77.57
16806;BME280;8520;50.102;20.010;2022-12-18T07:08:44;100109.47;;;-1.96;77.84
16806;BME280;8520;50.102;20.010;2022-12-18T07:11:13;100121.63;;;-1.90;77.72
16806;BME280;8520;50.102;20.010;2022-12-18T07:13:42;100111.69;;;-1.86;77.16
16806;BME280;8520;50.102;20.010;2022-12-18T07:16:12;100118.00;;;-1.94;77.77
16806;BME280;8520;50.102;20.010;2022-12-18T07:18:52;100124.78;;;-2.28;78.49
16806;BME280;8520;50.102;20.010;2022-12-18T07:21:21;100127.97;;;-1.55;77.08
16806;BME280;8520;50.102;20.010;2022-12-18T07:23:49;100132.22;;;-1.69;76.85
16806;BME280;8520;50.102;20.010;2022-12-18T07:26:18;100131.78;;;-1.72;77.01
16806;BME280;8520;50.102;20.010;2022-12-18T07:28:47;100131.69;;;-1.59;76.82
16806;BME280;8520;50.102;20.010;2022-12-18T07:31:17;100136.19;;;-1.79;77.03
16806;BME280;8520;50.102;20.010;2022-12-18T07:33:47;100140.88;;;-1.48;76.63
16806;BME280;8520;50.102;20.010;2022-12-18T07:36:17;100141.06;;;-1.41;76.38
16806;BME280;8520;50.102;20.010;2022-12-18T07:38:46;100162.50;;;-1.48;75.60
16806;BME280;8520;50.102;20.010;2022-12-18T07:41:15;100155.03;;;-1.83;76.51
16806;BME280;8520;50.102;20.010;2022-12-18T07:43:45;100159.72;;;-1.80;77.05
16806;BME280;8520;50.102;20.010;2022-12-18T07:46:14;100164.06;;;-1.91;77.14
16806;BME280;8520;50.102;20.010;2022-12-18T07:48:44;100166.63;;;-1.66;77.38
16806;BME280;8520;50.102;20.010;2022-12-18T07:51:18;100168.31;;;-1.18;75.41
16806;BME280;8520;50.102;20.010;2022-12-18T07:53:46;100166.09;;;-1.44;76.11
16806;BME280;8520;50.102;20.010;2022-12-18T07:56:18;100173.94;;;-1.39;75.82
16806;BME280;8520;50.102;20.010;2022-12-18T07:58:56;100172.66;;;-1.73;76.60
16806;BME280;8520;50.102;20.010;2022-12-18T08:01:25;100181.63;;;-1.41;76.67
16806;BME280;8520;50.102;20.010;2022-12-18T08:03:53;100177.78;;;-1.40;76.46
16806;BME280;8520;50.102;20.010;2022-12-18T08:06:23;100176.34;;;-0.90;74.68
16806;BME280;8520;50.102;20.010;2022-12-18T08:08:52;100164.38;;;-1.05;74.59
16806;BME280;8520;50.102;20.010;2022-12-18T08:11:21;100172.84;;;-1.06;74.26
16806;BME280;8520;50.102;20.010;2022-12-18T08:13:49;100182.25;;;-1.16;74.75
16806;BME280;8520;50.102;20.010;2022-12-18T08:16:17;100184.25;;;-1.29;75.23
16806;BME280;8520;50.102;20.010;2022-12-18T08:18:46;100193.09;;;-1.60;76.25
16806;BME280;8520;50.102;20.010;2022-12-18T08:21:17;100193.38;;;-1.77;76.64
16806;BME280;8520;50.102;20.010;2022-12-18T08:23:49;100193.53;;;-1.58;76.33
16806;BME280;8520;50.102;20.010;2022-12-18T08:26:18;100197.25;;;-1.34;75.37
16806;BME280;8520;50.102;20.010;2022-12-18T08:28:47;100198.75;;;-1.21;75.51
16806;BME280;8520;50.102;20.010;2022-12-18T08:31:16;100205.75;;;-1.48;75.40
16806;BME280;8520;50.102;20.010;2022-12-18T08:33:45;100209.56;;;-1.37;75.20
16806;BME280;8520;50.102;20.010;2022-12-18T08:36:15;100204.50;;;-1.23;74.91
16806;BME280;8520;50.102;20.010;2022-12-18T08:38:43;100200.84;;;-0.67;73.64
16806;BME280;8520;50.102;20.010;2022-12-18T08:41:15;100197.63;;;-0.22;72.08
16806;BME280;8520;50.102;20.010;2022-12-18T08:43:43;100199.13;;;-0.24;71.61
16806;BME280;8520;50.102;20.010;2022-12-18T08:46:33;100203.03;;;-1.04;73.53
16806;BME280;8520;50.102;20.010;2022-12-18T08:49:02;100203.72;;;-0.60;72.52
16806;BME280;8520;50.102;20.010;2022-12-18T08:51:30;100207.84;;;-0.98;73.05
16806;BME280;8520;50.102;20.010;2022-12-18T08:53:58;100214.13;;;-0.78;73.00
16806;BME280;8520;50.102;20.010;2022-12-18T08:56:28;100216.66;;;-0.53;72.65
16806;BME280;8520;50.102;20.010;2022-12-18T08:58:57;100217.03;;;-0.71;72.45
16806;BME280;8520;50.102;20.010;2022-12-18T09:01:25;100221.13;;;-0.61;72.34
16806;BME280;8520;50.102;20.010;2022-12-18T09:03:54;100224.78;;;-0.53;72.18
16806;BME280;8520;50.102;20.010;2022-12-18T09:06:22;100224.41;;;-1.15;72.93
16806;BME280;8520;50.102;20.010;2022-12-18T09:08:51;100231.69;;;-0.72;72.68
16806;BME280;8520;50.102;20.010;2022-12-18T09:11:21;100232.56;;;-0.99;72.98
16806;BME280;8520;50.102;20.010;2022-12-18T09:13:52;100236.88;;;-1.26;73.51
16806;BME280;8520;50.102;20.010;2022-12-18T09:16:21;100227.66;;;-0.94;73.40
16806;BME280;8520;50.102;20.010;2022-12-18T09:18:57;100230.63;;;-1.70;74.31
16806;BME280;8520;50.102;20.010;2022-12-18T09:21:29;100242.00;;;-1.37;74.56
16806;BME280;8520;50.102;20.010;2022-12-18T09:24:03;100226.00;;;-0.67;73.21
16806;BME280;8520;50.102;20.010;2022-12-18T09:26:34;100229.41;;;-0.70;73.25
16806;BME280;8520;50.102;20.010;2022-12-18T09:29:04;100236.44;;;-1.12;73.10
16806;BME280;8520;50.102;20.010;2022-12-18T09:31:34;100234.19;;;-0.95;73.56
16806;BME280;8520;50.102;20.010;2022-12-18T09:34:02;100236.03;;;-0.99;72.61
16806;BME280;8520;50.102;20.010;2022-12-18T09:36:31;100227.94;;;-0.99;72.87
16806;BME280;8520;50.102;20.010;2022-12-18T09:38:59;100235.25;;;-0.83;72.30
16806;BME280;8520;50.102;20.010;2022-12-18T09:41:42;100236.09;;;-1.27;73.05
16806;BME280;8520;50.102;20.010;2022-12-18T09:44:18;100231.16;;;-0.93;72.77
16806;BME280;8520;50.102;20.010;2022-12-18T09:46:53;100244.84;;;-1.02;72.69
16806;BME280;8520;50.102;20.010;2022-12-18T09:49:24;100233.50;;;-0.76;72.30
16806;BME280;8520;50.102;20.010;2022-12-18T09:51:56;100246.78;;;-0.87;72.54
16806;BME280;8520;50.102;20.010;2022-12-18T09:54:33;100240.66;;;-0.99;72.74
16806;BME280;8520;50.102;20.010;2022-12-18T09:57:03;100239.88;;;-0.84;72.41
16806;BME280;8520;50.102;20.010;2022-12-18T09:59:35;100230.97;;;-0.69;72.00
16806;BME280;8520;50.102;20.010;2022-12-18T10:02:15;100237.53;;;-0.70;71.49
16806;BME280;8520;50.102;20.010;2022-12-18T10:04:50;100234.41;;;-0.72;71.80
16806;BME280;8520;50.102;20.010;2022-12-18T10:07:25;100239.53;;;-0.51;72.10
16806;BME280;8520;50.102;20.010;2022-12-18T10:10:01;100240.31;;;-0.35;70.59
16806;BME280;8520;50.102;20.010;2022-12-18T10:12:37;100240.56;;;-0.40;70.95
16806;BME280;8520;50.102;20.010;2022-12-18T10:15:16;100240.84;;;-0.45;70.92
16806;BME280;8520;50.102;20.010;2022-12-18T10:17:51;100244.28;;;-0.64;71.34
16806;BME280;8520;50.102;20.010;2022-12-18T10:20:29;100233.41;;;-0.32;71.06
16806;BME280;8520;50.102;20.010;2022-12-18T10:23:10;100256.84;;;-0.71;71.28
16806;BME280;8520;50.102;20.010;2022-12-18T10:25:53;100239.97;;;-0.65;72.16
16806;BME280;8520;50.102;20.010;2022-12-18T10:28:23;100251.31;;;-0.75;71.52
16806;BME280;8520;50.102;20.010;2022-12-18T10:30:53;100244.88;;;-0.70;71.86
16806;BME280;8520;50.102;20.010;2022-12-18T10:33:23;100236.13;;;-0.48;71.56
16806;BME280;8520;50.102;20.010;2022-12-18T10:35:53;100231.16;;;-0.62;71.91
16806;BME280;8520;50.102;20.010;2022-12-18T10:38:24;100230.06;;;0.10;70.79
16806;BME280;8520;50.102;20.010;2022-12-18T10:40:54;100225.75;;;0.09;68.85
16806;BME280;8520;50.102;20.010;2022-12-18T10:43:25;100217.22;;;0.45;68.38
16806;BME280;8520;50.102;20.010;2022-12-18T10:46:01;100223.75;;;0.64;68.01
16806;BME280;8520;50.102;20.010;2022-12-18T10:48:30;100228.94;;;0.49;67.48
16806;BME280;8520;50.102;20.010;2022-12-18T10:50:59;100224.03;;;0.78;67.03
16806;BME280;8520;50.102;20.010;2022-12-18T10:53:40;100214.69;;;0.75;66.58
16806;BME280;8520;50.102;20.010;2022-12-18T10:56:10;100226.34;;;0.76;66.45
16806;BME280;8520;50.102;20.010;2022-12-18T10:58:38;100216.56;;;0.71;67.02
16806;BME280;8520;50.102;20.010;2022-12-18T11:01:11;100212.38;;;0.97;66.02
16806;BME280;8520;50.102;20.010;2022-12-18T11:03:41;100216.53;;;0.10;67.83
16806;BME280;8520;50.102;20.010;2022-12-18T11:06:12;100229.94;;;0.22;67.37
16806;BME280;8520;50.102;20.010;2022-12-18T11:08:43;100212.25;;;0.28;68.07
16806;BME280;8520;50.102;20.010;2022-12-18T11:11:19;100212.44;;;0.58;67.96
16806;BME280;8520;50.102;20.010;2022-12-18T11:13:57;100204.00;;;0.82;66.38
16806;BME280;8520;50.102;20.010;2022-12-18T11:16:29;100209.09;;;1.33;64.83
16806;BME280;8520;50.102;20.010;2022-12-18T11:19:19;100194.19;;;0.78;64.54
16806;BME280;8520;50.102;20.010;2022-12-18T11:21:51;100190.00;;;1.03;64.72
16806;BME280;8520;50.102;20.010;2022-12-18T11:24:24;100194.84;;;0.71;65.35
16806;BME280;8520;50.102;20.010;2022-12-18T11:26:55;100197.31;;;0.80;63.99
16806;BME280;8520;50.102;20.010;2022-12-18T11:29:32;100195.69;;;-0.57;65.91
16806;BME280;8520;50.102;20.010;2022-12-18T11:32:25;100193.72;;;-0.91;68.20
16806;BME280;8520;50.102;20.010;2022-12-18T11:35:01;100202.69;;;-1.03;68.02
16806;BME280;8520;50.102;20.010;2022-12-18T11:37:31;100202.16;;;-1.08;69.10
16806;BME280;8520;50.102;20.010;2022-12-18T11:40:05;100194.97;;;-1.32;68.65
16806;BME280;8520;50.102;20.010;2022-12-18T11:42:39;100198.56;;;-1.12;68.67
16806;BME280;8520;50.102;20.010;2022-12-18T11:45:23;100202.41;;;-0.66;67.92
16806;BME280;8520;50.102;20.010;2022-12-18T11:47:57;100204.34;;;-0.82;67.83
16806;BME280;8520;50.102;20.010;2022-12-18T11:50:32;100205.53;;;-0.48;67.83
16806;BME280;8520;50.102;20.010;2022-12-18T11:53:01;100211.31;;;-0.50;66.69
16806;BME280;8520;50.102;20.010;2022-12-18T11:55:37;100219.81;;;-0.99;68.38
16806;BME280;8520;50.102;20.010;2022-12-18T11:58:13;100213.22;;;-1.57;70.02
16806;BME280;8520;50.102;20.010;2022-12-18T12:00:53;100214.28;;;-2.02;71.83
16806;BME280;8520;50.102;20.010;2022-12-18T12:03:43;100206.94;;;-1.33;71.58
16806;BME280;8520;50.102;20.010;2022-12-18T12:06:20;100210.66;;;-0.78;69.68
16806;BME280;8520;50.102;20.010;2022-12-18T12:08:59;100205.19;;;-0.47;68.53
16806;BME280;8520;50.102;20.010;2022-12-18T12:11:38;100204.09;;;0.09;67.71
16806;BME280;8520;50.102;20.010;2022-12-18T12:14:20;100200.38;;;0.36;66.44
16806;BME280;8520;50.102;20.010;2022-12-18T12:16:54;100203.91;;;0.37;65.61
16806;BME280;8520;50.102;20.010;2022-12-18T12:19:35;100197.59;;;0.13;64.82
16806;BME280;8520;50.102;20.010;2022-12-18T12:22:10;100207.34;;;-0.72;66.67
16806;BME280;8520;50.102;20.010;2022-12-18T12:24:53;100210.19;;;-0.65;68.08
16806;BME280;8520;50.102;20.010;2022-12-18T12:27:30;100211.25;;;-0.85;68.09
16806;BME280;8520;50.102;20.010;2022-12-18T12:30:06;100214.81;;;-0.97;68.40
16806;BME280;8520;50.102;20.010;2022-12-18T12:32:46;100220.13;;;-1.16;70.28
16806;BME280;8520;50.102;20.010;2022-12-18T12:35:28;100215.22;;;-0.47;69.56
16806;BME280;8520;50.102;20.010;2022-12-18T12:38:06;100226.38;;;-0.17;68.05
16806;BME280;8520;50.102;20.010;2022-12-18T12:40:43;100229.28;;;-0.26;68.03
16806;BME280;8520;50.102;20.010;2022-12-18T12:43:31;100232.09;;;-0.03;67.78
16806;BME280;8520;50.102;20.010;2022-12-18T12:46:03;100238.78;;;0.19;67.43
16806;BME280;8520;50.102;20.010;2022-12-18T12:48:41;100241.41;;;0.35;67.42
16806;BME280;8520;50.102;20.010;2022-12-18T12:51:17;100238.63;;;0.50;66.66
16806;BME280;8520;50.102;20.010;2022-12-18T12:53:47;100246.88;;;-0.36;66.30
16806;BME280;8520;50.102;20.010;2022-12-18T12:56:18;100249.03;;;-0.41;67.88
16806;BME280;8520;50.102;20.010;2022-12-18T12:59:02;100255.34;;;-0.02;67.58
16806;BME280;8520;50.102;20.010;2022-12-18T13:01:37;100248.31;;;0.13;67.10
16806;BME280;8520;50.102;20.010;2022-12-18T13:04:17;100255.06;;;0.38;67.52
16806;BME280;8520;50.102;20.010;2022-12-18T13:06:59;100259.38;;;0.04;66.43
16806;BME280;8520;50.102;20.010;2022-12-18T13:09:32;100256.16;;;0.18;66.44
16806;BME280;8520;50.102;20.010;2022-12-18T13:12:04;100264.03;;;0.23;67.07
16806;BME280;8520;50.102;20.010;2022-12-18T13:15:13;100260.41;;;0.54;66.71
16806;BME280;8520;50.102;20.010;2022-12-18T13:17:48;100258.56;;;0.39;65.54
16806;BME280;8520;50.102;20.010;2022-12-18T13:20:16;100268.16;;;0.36;65.47
16806;BME280;8520;50.102;20.010;2022-12-18T13:22:48;100264.53;;;0.67;66.46